Latest Weather Observations for Cooma Airport

IDN60801

Issued at 4:04 am EST Thursday 25 August 2016 (issued every 30 minutes, with the page automatically refreshed every 10 minutes)

About weather observations | Map of weather stations | Latest weather observations for NSW | Other Formats
Station Details ID: 070217 Name: COOMA AIRPORT AWS Lat: -36.29 Lon: 148.97 Height: 930.0 m
Data from the previous 72 hours. | See also: Recent months at Cooma Airport
Date/Time
EST
Temp
°C
App
Temp
°C
Dew
Point
°C
Rel
Hum
%
Delta-T
°C
Wind Press
QNH
hPa
Press
MSL
hPa
Rain since
9am
mm
Dir  Spd
km/h
Gust
km/h
Spd
kts
Gust
kts
25/04:00am -0.2 -5.5 -0.3 99 0.0 WSW 17 20 9 11 1008.7 1009.6 2.6
25/03:30am -0.1 -5.8 -0.4 98 0.1 SW 19 20 10 11 1008.9 1009.9 2.6
25/03:00am 0.3 -4.9 0.2 99 0.0 SW 17 19 9 10 1008.8 1009.8 2.6
25/02:38am 0.3 -4.9 0.2 99 0.0 SW 17 17 9 9 1008.9 1009.9 2.6
25/02:30am 0.4 -4.0 0.3 99 0.0 SW 13 17 7 9 1009.1 1010.1 2.6
25/02:12am 0.5 -3.9 0.4 99 0.0 SW 13 15 7 8 1009.2 1010.2 2.6
25/02:00am 1.1 -3.2 1.0 99 0.0 SW 13 15 7 8 1009.3 1010.3 2.6
25/01:33am 1.8 -2.8 1.7 99 0.0 SW 15 15 8 8 1009.4 1010.4 2.6
25/01:30am 1.9 -2.7 1.8 99 0.0 SW 15 19 8 10 1009.4 1010.4 2.6
25/01:00am 2.9 -1.5 2.8 99 0.0 SW 15 17 8 9 1009.7 1010.6 2.6
25/12:52am 2.9 -0.7 2.8 99 0.0 SW 11 17 6 9 1009.9 1010.9 2.6
25/12:30am 2.9 -0.7 2.8 99 0.0 SW 11 13 6 7 1009.7 1010.6 2.6
25/12:19am 3.0 -0.6 2.9 99 0.0 SSW 11 13 6 7 1009.7 1010.6 2.6
25/12:00am 3.0 -1.0 2.9 99 0.0 SW 13 15 7 8 1009.8 1010.8 2.6
 
Date/Time
EST
Temp
°C
App
Temp
°C
Dew
Point
°C
Rel
Hum
%
Delta-T
°C
Wind Press
QNH
hPa
Press
MSL
hPa
Rain since
9am
mm
Dir  Spd
km/h
Gust
km/h
Spd
kts
Gust
kts
24/11:31pm 3.0 -0.6 2.9 99 0.0 SW 11 13 6 7 1009.9 1010.9 2.6
24/11:30pm 3.0 -0.6 2.9 99 0.0 SW 11 15 6 8 1009.9 1010.9 2.6
24/11:00pm 3.1 -0.5 3.0 99 0.0 SW 11 15 6 8 1010.0 1011.0 2.6
24/10:30pm 3.2 -0.4 3.1 99 0.0 SW 11 15 6 8 1010.2 1011.2 2.6
24/10:13pm 3.3 0.1 3.2 99 0.0 SW 9 13 5 7 1010.2 1011.2 2.6
24/10:00pm 3.2 0.6 3.1 99 0.0 SW 6 9 3 5 1010.3 1011.3 2.6
24/09:30pm 3.1 0.2 2.8 98 0.1 SSW 7 11 4 6 1010.5 1011.5 2.4
24/09:05pm 3.2 -0.8 2.8 97 0.2 S 13 17 7 9 1010.6 1011.7 2.2
24/09:04pm 3.2 -0.8 2.8 97 0.2 S 13 17 7 9 1010.6 1011.7 2.2
24/09:03pm 3.1 -0.9 2.7 97 0.2 S 13 17 7 9 1010.6 1011.7 2.2
24/09:00pm 3.3 -0.7 3.0 98 0.1 S 13 17 7 9 1010.6 1011.7 2.2
24/08:38pm 4.0 1.3 3.9 99 0.0 WSW 7 11 4 6 1010.6 1011.7 1.4
24/08:30pm 3.9 1.2 3.6 98 0.1 NW 7 9 4 5 1010.7 1011.8 0.8
24/08:21pm 4.0 1.5 3.9 99 0.0 NNW 6 7 3 4 1010.5 1011.5 0.6
24/08:00pm 4.2 1.4 3.3 94 0.4 ENE 7 11 4 6 1010.5 1011.5 0.2
24/07:30pm 4.4 1.3 3.5 94 0.4 E 9 13 5 7 1010.4 1011.4 0.2
24/07:00pm 4.5 0.6 3.5 93 0.4 ESE 13 17 7 9 1010.3 1011.3 0.2
24/06:30pm 4.9 1.6 4.3 96 0.3 E 11 13 6 7 1010.1 1011.1 0.2
24/06:00pm 5.1 3.4 3.8 91 0.6 ENE 2 9 1 5 1010.0 1011.0 0.2
24/05:30pm 5.2 3.9 4.0 92 0.5 CALM 0 0 0 0 1009.7 1010.6 0.2
24/05:14pm 5.4 2.9 4.5 94 0.4 NE 7 9 4 5 1009.8 1010.8 0.2
24/05:00pm 5.6 3.5 4.1 90 0.7 ENE 4 11 2 6 1009.8 1010.8 0.2
24/04:54pm 5.7 3.6 3.9 88 0.8 ESE 4 9 2 5 1009.8 1010.8 0.0
24/04:30pm 6.1 3.5 3.3 82 1.2 ENE 6 9 3 5 1009.5 1010.5 0.0
24/04:00pm 6.3 3.4 2.8 78 1.5 ENE 7 9 4 5 1009.7 1010.6 0.0
24/03:30pm 6.1 4.2 2.6 78 1.5 N 2 7 1 4 1009.8 1010.8 0.0
24/03:00pm 6.4 2.5 3.2 80 1.4 NE 13 15 7 8 1009.8 1010.8 0.0
24/02:30pm 6.4 2.2 3.9 84 1.1 NE 15 19 8 10 1010.2 1011.2 0.0
24/02:00pm 6.7 3.5 3.0 77 1.6 NE 9 13 5 7 1010.5 1011.5 0.0
24/01:30pm 6.6 3.7 2.5 75 1.8 ENE 7 11 4 6 1010.7 1011.8 0.0
24/01:00pm 6.5 3.2 2.6 76 1.7 NE 9 13 5 7 1011.1 1012.1 0.0
24/12:30pm 6.7 4.4 2.8 76 1.7 NE 4 11 2 6 1011.6 1012.7 0.0
24/12:00pm 6.0 3.3 2.8 80 1.4 E 6 11 3 6 1012.1 1013.1 0.0
24/11:30am 5.3 3.4 2.7 83 1.1 ESE 2 11 1 6 1012.8 1013.9 0.0
24/11:00am 5.1 3.6 3.0 86 0.9 CALM 0 0 0 0 1013.6 1014.7 0.0
24/10:55am 4.8 3.2 2.5 85 1.0 CALM 0 0 0 0 1013.7 1014.8 0.0
24/10:46am 4.6 2.3 2.5 86 0.9 SSW 4 9 2 5 1013.7 1014.8 0.0
24/10:30am 4.4 1.7 2.8 89 0.7 SSW 6 9 3 5 1013.6 1014.7 0.0
24/10:15am 4.2 2.2 2.2 87 0.8 E 2 7 1 4 1013.7 1014.8 0.0
24/10:00am 3.9 1.9 2.3 89 0.7 NE 2 7 1 4 1013.8 1014.9 0.0
24/09:30am 3.3 1.6 2.1 92 0.5 CALM 0 0 0 0 1014.0 1015.1 0.0
24/09:00am 2.4 -0.4 2.1 98 0.1 SSE 6 7 3 4 1014.5 1015.6 0.0
24/08:30am 1.7 -1.2 1.6 99 0.0 SSE 6 9 3 5 1014.7 1015.8 0.0
24/08:00am 1.0 -0.8 0.9 99 0.0 CALM 0 0 0 0 1014.6 1015.7 0.0
24/07:30am 0.2 -2.9 0.1 99 0.0 WSW 6 7 3 4 1014.4 1015.5 0.0
24/07:00am -0.9 -4.7 -1.0 99 0.0 WSW 9 11 5 6 1014.6 1015.7 0.0
24/06:30am -1.5 -5.0 -1.6 99 0.0 SSW 7 9 4 5 1014.6 1015.7 0.0
24/06:00am -1.1 -3.3 -1.2 99 0.0 CALM 0 0 0 0 1014.5 1015.6 0.0
24/05:30am -1.5 -3.7 -1.6 99 0.0 CALM 0 4 0 2 1014.4 1015.5 0.0
24/05:00am -1.8 -4.0 -1.9 99 0.0 CALM 0 0 0 0 1014.6 1015.7 0.0
24/04:30am -1.7 -5.6 -1.8 99 0.0 SW 9 13 5 7 1014.2 1015.4 0.0
24/04:00am -1.9 -5.5 -2.0 99 -0.1 WNW 7 9 4 5 1014.4 1015.5 0.0
24/03:30am -2.3 -5.4 -2.6 98 0.0 S 4 13 2 7 1014.1 1015.2 0.0
24/03:00am -2.0 -5.4 -2.4 97 0.0 N 6 7 3 4 1015.0 1016.1 0.0
24/02:30am -2.3 -4.7 -3.1 94 0.2 CALM 0 0 0 0 1014.9 1016.0 0.0
24/02:21am -2.3 -5.1 -3.1 94 0.2 W 2 7 1 4 1014.9 1016.0 0.0
24/02:00am -1.2 -3.4 -1.5 98 0.1 CALM 0 6 0 3 1015.3 1016.5 0.0
24/01:30am -0.8 -4.1 -0.9 99 0.0 SW 6 11 3 6 1015.8 1016.9 0.0
24/01:22am -0.3 -4.1 -0.4 99 0.0 WNW 9 11 5 6 1015.9 1017.0 0.0
24/01:00am -1.3 -4.6 -1.4 99 0.0 WSW 6 9 3 5 1015.6 1016.7 0.0
24/12:30am -1.8 -5.4 -2.2 97 0.1 SSW 7 9 4 5 1015.8 1016.9 0.0
24/12:00am -0.6 -2.7 -1.0 97 0.1 CALM 0 0 0 0 1016.3 1017.5 0.0
 
Date/Time
EST
Temp
°C
App
Temp
°C
Dew
Point
°C
Rel
Hum
%
Delta-T
°C
Wind Press
QNH
hPa
Press
MSL
hPa
Rain since
9am
mm
Dir  Spd
km/h
Gust
km/h
Spd
kts
Gust
kts
23/11:30pm -0.5 -4.0 -1.3 94 0.3 SW 7 9 4 5 1016.4 1017.6 0.0
23/11:00pm 1.1 -2.5 0.5 96 0.2 SW 9 11 5 6 1016.4 1017.6 0.0
23/10:30pm 0.6 -1.6 -1.2 88 0.7 CALM 0 0 0 0 1016.1 1017.3 0.0
23/10:00pm 2.2 0.2 0.1 86 0.8 CALM 0 0 0 0 1016.1 1017.3 0.0
23/09:30pm 3.1 1.2 0.8 85 0.9 CALM 0 0 0 0 1016.2 1017.4 0.0
23/09:00pm 3.6 1.7 0.8 82 1.1 CALM 0 0 0 0 1016.4 1017.6 0.0
23/08:30pm 3.7 1.8 0.8 81 1.2 CALM 0 2 0 1 1016.4 1017.6 0.0
23/08:00pm 3.4 -0.6 0.6 82 1.1 SSW 11 13 6 7 1016.0 1017.1 0.0
23/07:30pm 4.0 0.4 0.7 79 1.3 SW 9 11 5 6 1015.8 1016.9 0.0
23/07:00pm 4.2 1.0 0.5 77 1.5 SW 7 9 4 5 1015.6 1016.7 0.0
23/06:30pm 3.8 1.8 0.1 77 1.5 CALM 0 0 0 0 1015.0 1016.1 0.0
23/06:00pm 3.7 0.6 0.1 77 1.4 SE 6 7 3 4 1015.0 1016.1 0.0
23/05:30pm 4.9 1.3 0.7 74 1.7 SSE 9 11 5 6 1014.9 1016.0 0.0
23/05:00pm 6.8 2.5 0.7 65 2.6 SSE 13 15 7 8 1014.9 1016.0 0.0
23/04:30pm 7.8 3.1 0.8 61 3.0 SSE 15 20 8 11 1014.7 1015.8 0.0
23/04:00pm 8.2 2.7 0.7 59 3.2 SSE 19 24 10 13 1013.8 1014.9 0.0
23/03:30pm 8.8 3.8 1.2 59 3.3 SSW 17 22 9 12 1013.8 1014.9 0.0
23/03:00pm 8.3 2.8 0.3 57 3.4 S 19 24 10 13 1013.5 1014.6 0.0
23/02:30pm 9.0 4.8 1.4 59 3.3 S 13 24 7 13 1013.7 1014.8 0.0
23/02:00pm 8.2 4.3 1.1 61 3.1 S 11 19 6 10 1014.1 1015.2 0.0
23/01:30pm 8.1 4.1 0.8 60 3.1 S 11 19 6 10 1014.2 1015.4 0.0
23/01:00pm 9.2 5.1 2.1 61 3.2 SSW 13 22 7 12 1014.0 1015.1 0.0
23/12:30pm 7.7 3.0 0.7 61 3.0 SSW 15 20 8 11 1014.4 1015.5 0.0
23/12:00pm 7.2 2.7 0.0 60 3.0 SSW 13 19 7 10 1014.7 1015.8 0.0
23/11:30am 7.3 1.7 1.0 64 2.7 SSW 20 30 11 16 1014.8 1015.9 0.0
23/11:00am 7.2 0.0 0.9 64 2.7 SSW 28 35 15 19 1014.7 1015.8 0.0
23/10:30am 6.5 -0.6 1.4 70 2.2 SSW 28 39 15 21 1014.8 1015.9 0.0
23/10:00am 5.7 -1.4 1.2 73 1.9 SSW 28 39 15 21 1014.5 1015.6 0.0
23/09:53am 7.0 0.0 4.1 82 1.3 SSW 30 35 16 19 1014.5 1015.6 0.0
23/09:30am 6.1 -0.6 3.9 86 1.0 SSW 28 35 15 19 1014.5 1015.6 0.0
23/09:00am 5.0 -1.7 3.5 90 0.7 SSW 28 33 15 18 1014.4 1015.5 2.8
23/08:48am 4.7 -2.2 2.7 87 0.9 SSW 28 35 15 19 1014.2 1015.4 2.8
23/08:30am 4.6 -1.0 3.7 94 0.4 SSW 22 30 12 16 1014.1 1015.2 2.8
23/08:00am 3.1 -1.6 3.0 99 0.0 SW 17 20 9 11 1014.4 1015.5 2.8
23/07:30am 2.6 -2.2 2.5 99 0.0 SW 17 20 9 11 1014.0 1015.1 2.8
23/07:00am 3.1 -1.6 3.0 99 0.0 WSW 17 19 9 10 1014.0 1015.1 2.8
23/06:30am 3.1 -0.9 3.0 99 0.0 WSW 13 17 7 9 1013.8 1014.9 2.8
23/06:00am 3.1 -0.9 3.0 99 0.0 SW 13 13 7 7 1013.6 1014.7 2.8
23/05:47am 3.2 -0.4 3.1 99 0.0 SSW 11 13 6 7 1013.5 1014.6 2.8
23/05:30am 3.4 -0.5 3.3 99 0.0 SSW 13 17 7 9 1013.3 1014.3 2.8
23/05:00am 3.4 -0.5 3.3 99 0.0 SSW 13 17 7 9 1013.2 1014.2 2.8
23/04:30am 3.3 -0.6 3.2 99 0.0 SW 13 17 7 9 1012.9 1014.0 2.6
23/04:00am 3.2 -0.8 3.1 99 0.0 SSW 13 15 7 8 1012.6 1013.7 2.6
23/03:30am 2.8 -0.5 2.7 99 0.0 S 9 11 5 6 1012.5 1013.6 2.6
23/03:00am 3.2 -0.8 3.1 99 0.0 SW 13 17 7 9 1012.4 1013.4 2.6
23/02:30am 2.5 -1.2 2.4 99 0.0 SW 11 13 6 7 1012.5 1013.6 2.6
23/02:13am 2.0 -1.8 1.9 99 0.0 SSW 11 13 6 7 1012.5 1013.6 2.6
23/02:00am 1.9 -1.1 1.8 99 0.0 SSW 7 9 4 5 1012.5 1013.6 2.6
23/01:40am 2.7 -1.3 2.6 99 0.0 SW 13 17 7 9 1012.5 1013.6 2.6
23/01:30am 2.7 -1.3 2.6 99 0.0 SW 13 15 7 8 1012.5 1013.6 2.6
23/01:00am 2.5 -2.0 2.4 99 0.0 SW 15 15 8 8 1012.7 1013.8 2.6
23/12:57am 2.4 -2.1 2.3 99 0.0 SW 15 15 8 8 1012.6 1013.7 2.6
23/12:53am 2.1 -2.4 2.0 99 0.0 SW 15 15 8 8 1012.6 1013.7 2.6
23/12:40am 2.2 -2.3 2.1 99 0.0 SW 15 17 8 9 1012.7 1013.8 2.6
23/12:30am 2.1 -2.4 2.0 99 0.0 SW 15 17 8 9 1012.7 1013.8 2.6
23/12:00am 1.5 -2.7 1.4 99 0.0 SW 13 15 7 8 1012.8 1013.9 2.6
 
Date/Time
EST
Temp
°C
App
Temp
°C
Dew
Point
°C
Rel
Hum
%
Delta-T
°C
Wind Press
QNH
hPa
Press
MSL
hPa
Rain since
9am
mm
Dir  Spd
km/h
Gust
km/h
Spd
kts
Gust
kts
22/11:30pm 1.7 0.0 1.6 99 0.0 CALM 0 0 0 0 1012.8 1013.9 2.6
22/11:00pm 2.3 0.7 2.2 99 0.0 CALM 0 0 0 0 1012.9 1014.0 2.6
22/10:30pm 2.2 0.5 1.8 97 0.2 CALM 0 0 0 0 1013.2 1014.2 2.6
22/10:00pm 3.1 1.6 3.0 99 0.0 CALM 0 0 0 0 1013.3 1014.3 2.6
22/09:30pm 3.6 1.1 3.5 99 0.0 N 6 7 3 4 1013.3 1014.3 2.6
22/09:00pm 4.0 2.7 3.9 99 0.0 CALM 0 0 0 0 1013.2 1014.2 2.6
22/08:30pm 4.2 2.8 3.6 96 0.3 CALM 0 0 0 0 1013.0 1014.1 2.6
22/08:00pm 4.3 3.0 3.9 97 0.2 CALM 0 0 0 0 1013.3 1014.3 2.6
22/07:30pm 4.2 2.1 3.8 97 0.2 NE 4 7 2 4 1013.6 1014.7 2.4
22/07:00pm 4.5 1.0 3.6 94 0.4 NE 11 13 6 7 1013.5 1014.6 2.2
22/06:30pm 4.8 1.6 2.8 87 0.9 NW 9 15 5 8 1013.5 1014.6 1.8
22/06:00pm 4.9 0.6 3.1 88 0.8 WNW 15 19 8 10 1013.3 1014.3 1.6
22/05:30pm 5.5 1.6 3.3 86 1.0 WNW 13 17 7 9 1012.7 1013.8 1.4
22/05:00pm 5.6 2.9 3.6 87 0.9 NNW 7 15 4 8 1012.8 1013.9 1.2
22/04:30pm 5.5 1.8 4.3 92 0.5 NE 13 13 7 7 1012.6 1013.7 1.2
22/04:00pm 5.4 2.7 3.9 90 0.7 NNE 7 9 4 5 1012.7 1013.8 1.2
22/03:48pm 5.2 2.2 4.2 93 0.4 N 9 17 5 9 1012.9 1014.0 1.2
22/03:30pm 4.9 0.4 4.2 95 0.3 N 17 26 9 14 1012.9 1014.0 0.8
22/03:26pm 4.9 -0.3 3.7 92 0.5 N 20 28 11 15 1013.0 1014.1 0.4
22/03:14pm 5.4 2.1 2.4 81 1.3 NNE 9 37 5 20 1012.7 1013.8 0.2
22/03:00pm 7.0 3.8 3.1 76 1.7 NE 9 13 5 7 1012.8 1013.9 0.2
22/02:35pm 7.0 3.3 4.3 83 1.2 NNE 13 15 7 8 1013.0 1014.1 0.2
22/02:30pm 6.8 3.0 3.8 81 1.4 NNE 13 19 7 10 1013.0 1014.1 0.2
22/02:18pm 6.9 2.8 4.6 85 1.1 NE 15 20 8 11 1013.0 1014.1 0.0
22/02:00pm 6.9 1.9 3.5 79 1.5 NNE 19 24 10 13 1013.3 1014.3 0.0
22/01:30pm 7.3 1.9 2.4 71 2.2 NNE 20 26 11 14 1013.4 1014.5 0.0
22/01:00pm 7.2 2.0 3.4 77 1.7 NNE 20 26 11 14 1013.7 1014.8 0.0
22/12:30pm 7.4 2.1 3.1 74 1.9 NE 20 24 11 13 1014.1 1015.2 0.0
22/12:00pm 8.1 3.0 2.8 69 2.4 NE 19 22 10 12 1014.4 1015.5 0.0
22/11:30am 7.7 2.5 2.4 69 2.3 NE 19 22 10 12 1014.7 1015.8 0.0
22/11:00am 7.3 2.8 2.2 70 2.2 NE 15 20 8 11 1015.0 1016.1 0.0
22/10:30am 7.2 2.7 2.1 70 2.2 NE 15 17 8 9 1015.1 1016.2 0.0
22/10:00am 7.1 3.0 2.2 71 2.1 N 13 17 7 9 1015.3 1016.5 0.0
22/09:30am 6.8 3.0 1.7 70 2.2 N 11 15 6 8 1015.6 1016.7 0.0
22/09:00am 6.4 2.3 2.1 74 1.9 NNE 13 15 7 8 1015.7 1016.8 0.0
22/08:30am 5.7 2.0 2.5 80 1.4 NE 11 15 6 8 1015.9 1017.0 0.0
22/08:00am 5.7 1.9 2.0 77 1.6 N 11 13 6 7 1015.7 1016.8 0.0
22/07:30am 5.2 1.9 2.2 81 1.3 N 9 11 5 6 1015.6 1016.7 0.0
22/07:00am 4.4 1.0 1.6 82 1.2 N 9 11 5 6 1015.5 1016.6 0.0
22/06:30am 4.3 0.5 1.7 83 1.1 N 11 15 6 8 1015.1 1016.2 0.0
22/06:00am 4.0 -0.6 1.4 83 1.1 NE 15 17 8 9 1015.0 1016.1 0.0
22/05:30am 4.4 0.8 0.4 75 1.6 NNE 9 11 5 6 1014.8 1015.9 0.0
22/05:00am 5.5 1.1 0.3 69 2.1 NNW 13 17 7 9 1014.7 1015.8 0.0
22/04:30am 5.6 1.9 0.2 68 2.2 NNW 9 15 5 8 1014.6 1015.7 0.0

Other Formats:

Comma delimited format used in spreadsheet applications
http://www.bom.gov.au/fwo/IDN60801/IDN60801.94921.axf

JavaScript Object Notation format (JSON) in row-major order
http://www.bom.gov.au/fwo/IDN60801/IDN60801.94921.json